Terminal Aerodrome Forecast
Issued by NWS

Home | Current Version | Previous Version | Text Only | Print | Product List | Glossary On
Versions: 1 2 3 4 5 6 7 8 9 10 11 12
000
FTUS42 KTBW 041735
TAFLAL
TAF
KLAL 041735Z 0418/0518 16004KT P6SM VCTS SCT035CB BKN250
     FM042100 17006KT P6SM VCTS SCT040CB BKN070
     FM050000 11005KT P6SM VCTS SCT040CB BKN150
     FM050300 VRB03KT P6SM SCT050 BKN250
     FM051400 18005KT P6SM FEW030 SCT250=

USA.gov is the U.S. government's official web portal to all federal, state and local government web resources and services.